createdAt,value
2018-11-23T00:01:32.602Z,29.35
2018-11-23T00:04:00.760Z,33.38
2018-11-23T00:06:29.019Z,32.23
2018-11-23T00:08:57.180Z,30.85
2018-11-23T00:11:25.339Z,29.48
2018-11-23T00:13:53.488Z,27.90
2018-11-23T00:16:21.672Z,31.90
2018-11-23T00:18:49.834Z,27.00
2018-11-23T00:21:17.977Z,29.15
2018-11-23T00:23:46.230Z,26.75
2018-11-23T00:26:14.380Z,28.30
2018-11-23T00:28:42.547Z,27.10
2018-11-23T00:31:10.752Z,28.50
2018-11-23T00:33:38.956Z,25.05
2018-11-23T00:36:07.186Z,26.97
2018-11-23T00:38:35.383Z,24.50
2018-11-23T00:41:03.527Z,24.63
2018-11-23T00:43:31.684Z,23.77
2018-11-23T00:45:59.825Z,22.35
2018-11-23T00:48:27.997Z,24.82
2018-11-23T00:50:56.164Z,31.23
2018-11-23T00:53:24.320Z,25.45
2018-11-23T00:55:52.465Z,30.35
2018-11-23T00:58:20.612Z,28.30
2018-11-23T01:00:48.776Z,25.25
2018-11-23T01:03:16.965Z,25.20
2018-11-23T01:05:45.171Z,30.10
2018-11-23T01:08:13.360Z,27.95
2018-11-23T01:10:41.503Z,27.52
2018-11-23T01:13:09.683Z,25.97
2018-11-23T01:15:37.849Z,28.60
2018-11-23T01:18:06.056Z,24.55
2018-11-23T01:20:44.416Z,24.40
2018-11-23T01:26:35.027Z,27.55
2018-11-23T01:29:03.270Z,27.37
2018-11-23T01:31:31.471Z,27.77
2018-11-23T01:33:59.732Z,24.50
2018-11-23T01:36:27.998Z,22.87
2018-11-23T01:38:56.225Z,26.02
2018-11-23T01:41:24.437Z,28.67
2018-11-23T01:43:52.642Z,27.55
2018-11-23T01:46:20.847Z,23.45
2018-11-23T01:48:49.062Z,26.80
2018-11-23T01:51:17.248Z,26.65
2018-11-23T01:53:46.598Z,26.70
2018-11-23T01:56:14.780Z,32.25
2018-11-23T01:58:42.995Z,27.98
2018-11-23T02:01:11.195Z,29.12
2018-11-23T02:03:39.418Z,28.85
2018-11-23T02:06:07.627Z,23.15
2018-11-23T02:08:35.864Z,32.17
2018-11-23T02:11:04.070Z,25.40
2018-11-23T02:13:32.259Z,25.10
2018-11-23T02:16:00.429Z,24.10
2018-11-23T02:18:28.604Z,27.02
2018-11-23T02:20:56.817Z,26.77
2018-11-23T02:23:25.031Z,24.77
2018-11-23T02:25:53.306Z,22.17
2018-11-23T02:28:21.563Z,24.40
2018-11-23T02:30:51.276Z,27.25
2018-11-23T02:33:19.547Z,30.10
2018-11-23T02:35:47.758Z,24.25
2018-11-23T02:38:15.965Z,25.08
2018-11-23T02:40:44.170Z,25.10
2018-11-23T02:43:12.360Z,26.33
2018-11-23T02:45:40.560Z,28.00
2018-11-23T02:48:08.768Z,24.10
2018-11-23T02:50:36.939Z,26.02
2018-11-23T02:53:05.127Z,29.07
2018-11-23T02:55:33.306Z,30.57
2018-11-23T02:58:01.498Z,30.77
2018-11-23T03:00:29.658Z,23.85
2018-11-23T03:02:57.866Z,32.25
2018-11-23T03:05:26.063Z,27.27
2018-11-23T03:07:54.283Z,26.97
2018-11-23T03:10:22.506Z,31.82
2018-11-23T03:12:50.708Z,30.08
2018-11-23T03:15:19.645Z,23.47
2018-11-23T03:17:48.240Z,25.80
2018-11-23T03:20:17.957Z,23.15
2018-11-23T03:22:46.139Z,28.75
2018-11-23T03:25:15.217Z,24.27
2018-11-23T03:27:43.472Z,25.55
2018-11-23T03:30:15.472Z,27.10
2018-11-23T03:32:44.341Z,27.45
2018-11-23T03:35:12.544Z,27.73
2018-11-23T03:37:40.742Z,28.02
2018-11-23T03:40:09.032Z,30.10
2018-11-23T03:42:37.216Z,24.70
2018-11-23T03:45:06.950Z,28.80
2018-11-23T03:47:35.181Z,24.60
2018-11-23T03:50:03.404Z,28.02
2018-11-23T03:52:31.710Z,26.57
2018-11-23T03:54:59.909Z,27.27
2018-11-23T03:57:28.142Z,25.92
2018-11-23T03:59:56.356Z,30.80
2018-11-23T04:02:25.300Z,24.52
2018-11-23T04:04:53.513Z,25.27
2018-11-23T04:07:21.825Z,24.90
2018-11-23T04:09:50.070Z,33.20
2018-11-23T04:12:18.284Z,25.37
2018-11-23T04:14:46.473Z,29.10
2018-11-23T04:17:14.766Z,32.45
2018-11-23T04:19:42.956Z,24.95
2018-11-23T04:22:11.190Z,24.37
2018-11-23T04:24:39.445Z,29.30
2018-11-23T04:27:07.662Z,27.13
2018-11-23T04:29:35.925Z,24.37
2018-11-23T04:32:04.133Z,28.30
2018-11-23T04:34:32.337Z,27.25
2018-11-23T04:37:00.593Z,30.15
2018-11-23T04:39:28.793Z,27.52
2018-11-23T04:41:57.046Z,27.05
2018-11-23T04:44:25.266Z,25.57
2018-11-23T04:46:53.485Z,29.37
2018-11-23T04:49:21.690Z,27.90
2018-11-23T04:51:49.983Z,27.15
2018-11-23T04:54:18.194Z,27.40
2018-11-23T04:56:46.485Z,25.95
2018-11-23T04:59:14.693Z,26.82
2018-11-23T05:01:42.929Z,29.23
2018-11-23T05:04:11.144Z,29.65
2018-11-23T05:06:39.386Z,73.00
2018-11-23T05:09:09.171Z,29.00
2018-11-23T05:11:37.761Z,28.50
2018-11-23T05:14:05.993Z,28.30
2018-11-23T05:16:34.217Z,27.15
2018-11-23T05:19:02.423Z,26.25
2018-11-23T05:21:30.643Z,26.48
2018-11-23T05:23:58.859Z,24.60
2018-11-23T05:26:27.042Z,26.95
2018-11-23T05:28:55.271Z,27.45
2018-11-23T05:31:23.497Z,33.90
2018-11-23T05:33:51.799Z,28.25
2018-11-23T05:36:20.010Z,23.00
2018-11-23T05:38:48.234Z,28.75
2018-11-23T05:41:16.455Z,32.20
2018-11-23T05:43:44.666Z,28.75
2018-11-23T05:46:12.913Z,24.15
2018-11-23T05:48:41.471Z,24.15
2018-11-23T05:51:09.851Z,20.95
2018-11-23T05:53:38.065Z,31.45
2018-11-23T05:56:06.769Z,25.88
2018-11-23T05:58:35.016Z,27.17
2018-11-23T06:01:03.215Z,27.25
2018-11-23T06:03:31.389Z,30.00
2018-11-23T06:05:59.579Z,28.87
2018-11-23T06:08:27.832Z,25.77
2018-11-23T06:10:56.065Z,32.42
2018-11-23T06:13:24.281Z,33.23
2018-11-23T06:15:52.580Z,27.77
2018-11-23T06:18:20.802Z,24.70
2018-11-23T06:20:49.077Z,35.52
2018-11-23T06:23:17.274Z,38.60
2018-11-23T06:25:48.899Z,29.48
2018-11-23T06:28:17.119Z,31.23
2018-11-23T06:30:45.311Z,24.30
2018-11-23T06:33:27.878Z,32.83
2018-11-23T06:35:56.089Z,28.87
2018-11-23T06:38:24.371Z,33.53
2018-11-23T06:40:52.621Z,27.22
2018-11-23T06:43:20.930Z,27.40
2018-11-23T06:45:49.173Z,28.75
2018-11-23T06:48:17.453Z,34.95
2018-11-23T06:50:45.799Z,27.87
2018-11-23T06:53:14.117Z,24.37
2018-11-23T06:55:42.374Z,24.50
2018-11-23T06:58:10.652Z,26.15
2018-11-23T07:00:38.905Z,23.95
2018-11-23T07:03:07.260Z,25.95
2018-11-23T07:05:35.659Z,28.27
2018-11-23T07:08:03.999Z,27.27
2018-11-23T07:10:32.225Z,27.27
2018-11-23T07:13:00.409Z,29.37
2018-11-23T07:15:28.633Z,33.53
2018-11-23T07:17:56.954Z,29.25
2018-11-23T07:20:25.176Z,27.42
2018-11-23T07:22:53.331Z,29.05
2018-11-23T07:25:21.514Z,25.02
2018-11-23T07:27:49.684Z,27.73
2018-11-23T07:30:22.776Z,26.12
2018-11-23T07:32:50.935Z,27.82
2018-11-23T07:35:19.091Z,29.50
2018-11-23T07:37:47.243Z,26.15
2018-11-23T07:40:31.869Z,28.65
2018-11-23T07:43:00.019Z,31.23
2018-11-23T07:45:28.432Z,27.58
2018-11-23T07:47:56.575Z,29.05
2018-11-23T07:50:24.755Z,34.10
2018-11-23T07:52:52.901Z,27.13
2018-11-23T07:55:21.083Z,26.33
2018-11-23T07:57:49.592Z,30.97
2018-11-23T08:00:20.170Z,30.85
2018-11-23T08:02:48.860Z,27.00
2018-11-23T08:05:17.942Z,25.45
2018-11-23T08:07:46.344Z,27.02
2018-11-23T08:10:14.583Z,33.75
2018-11-23T08:12:44.056Z,35.20
2018-11-23T08:15:15.467Z,30.65
2018-11-23T08:17:44.045Z,31.97
2018-11-23T08:20:13.803Z,26.70
2018-11-23T08:22:42.152Z,26.95
2018-11-23T08:25:11.209Z,26.23
2018-11-23T08:27:39.427Z,29.23
2018-11-23T08:30:10.181Z,27.55
2018-11-23T08:32:38.401Z,32.42
2018-11-23T08:35:06.788Z,34.33
2018-11-23T08:37:35.093Z,37.30
2018-11-23T08:40:03.260Z,34.33
2018-11-23T08:42:31.473Z,35.55
2018-11-23T08:44:59.608Z,36.50
2018-11-23T08:47:27.787Z,45.45
2018-11-23T08:49:55.966Z,38.30
2018-11-23T08:52:24.119Z,31.90
2018-11-23T08:54:52.269Z,34.25
2018-11-23T08:57:20.428Z,29.23
2018-11-23T08:59:48.610Z,29.05
2018-11-23T09:02:16.769Z,29.48
2018-11-23T09:04:44.980Z,28.83
2018-11-23T09:07:13.144Z,32.80
2018-11-23T09:09:41.302Z,34.83
2018-11-23T09:12:09.509Z,29.37
2018-11-23T09:14:37.637Z,33.33
2018-11-23T09:17:05.888Z,32.13
2018-11-23T09:19:34.059Z,30.57
2018-11-23T09:22:02.266Z,30.00
2018-11-23T09:24:30.420Z,30.95
2018-11-23T09:26:58.584Z,25.55
2018-11-23T09:29:26.732Z,28.80
2018-11-23T09:31:54.892Z,33.92
2018-11-23T09:34:23.092Z,32.23
2018-11-23T09:36:51.352Z,33.75
2018-11-23T09:39:19.593Z,36.63
2018-11-23T09:41:47.799Z,33.88
2018-11-23T09:44:15.972Z,31.57
2018-11-23T09:46:44.270Z,32.17
2018-11-23T09:49:12.403Z,34.30
2018-11-23T09:51:40.620Z,34.98
2018-11-23T09:54:08.828Z,31.97
2018-11-23T09:56:37.011Z,34.60
2018-11-23T09:59:05.329Z,29.63
2018-11-23T10:01:33.500Z,34.47
2018-11-23T10:04:01.643Z,34.13
2018-11-23T10:06:29.785Z,32.53
2018-11-23T10:08:57.949Z,36.33
2018-11-23T10:11:26.100Z,31.73
2018-11-23T10:13:54.260Z,29.37
2018-11-23T10:16:22.411Z,32.10
2018-11-23T10:18:52.820Z,33.00
2018-11-23T10:21:20.980Z,37.23
2018-11-23T10:23:49.122Z,30.83
2018-11-23T10:26:17.293Z,30.60
2018-11-23T10:28:45.467Z,33.30
2018-11-23T10:31:13.630Z,37.23
2018-11-23T10:33:41.775Z,35.40
2018-11-23T10:36:09.933Z,33.67
2018-11-23T10:38:38.090Z,37.97
2018-11-23T10:41:06.277Z,34.17
2018-11-23T10:43:34.418Z,38.67
2018-11-23T10:46:02.580Z,35.07
2018-11-23T10:48:30.744Z,33.47
2018-11-23T10:50:58.886Z,40.03
2018-11-23T10:53:27.053Z,34.87
2018-11-23T10:55:55.212Z,38.57
2018-11-23T10:58:23.358Z,34.70
2018-11-23T11:00:56.876Z,35.00
2018-11-23T11:03:32.557Z,38.93
2018-11-23T11:06:07.631Z,30.17
2018-11-23T11:08:35.840Z,38.20
2018-11-23T11:11:04.148Z,34.03
2018-11-23T11:13:32.340Z,37.57
2018-11-23T11:16:00.515Z,34.80
2018-11-23T11:18:28.685Z,34.97
2018-11-23T11:20:56.861Z,36.90
2018-11-23T11:23:29.128Z,32.03
2018-11-23T11:25:57.278Z,35.13
2018-11-23T11:28:25.448Z,28.87
2018-11-23T11:30:53.719Z,34.23
2018-11-23T11:33:21.888Z,33.77
2018-11-23T11:35:51.145Z,37.80
2018-11-23T11:38:19.300Z,35.47
2018-11-23T11:40:47.452Z,34.40
2018-11-23T11:43:15.616Z,35.80
2018-11-23T11:45:43.760Z,39.23
2018-11-23T11:48:11.924Z,34.67
2018-11-23T11:50:40.084Z,39.10
2018-11-23T11:53:08.280Z,37.10
2018-11-23T11:55:36.451Z,38.23
2018-11-23T11:58:04.644Z,39.10
2018-11-23T12:00:32.811Z,36.07
2018-11-23T12:03:01.012Z,33.57
2018-11-23T12:05:29.148Z,34.73
2018-11-23T12:07:57.306Z,31.70
2018-11-23T12:10:26.201Z,32.33
2018-11-23T12:12:54.389Z,36.63
2018-11-23T12:15:22.558Z,31.23
2018-11-23T12:17:50.701Z,33.63
2018-11-23T12:20:21.417Z,33.13
2018-11-23T12:22:49.892Z,31.53
2018-11-23T12:25:18.375Z,32.90
2018-11-23T12:27:46.528Z,32.97
2018-11-23T12:30:16.260Z,30.83
2018-11-23T12:32:45.457Z,31.20
2018-11-23T12:35:14.377Z,29.10
2018-11-23T12:37:42.534Z,33.90
2018-11-23T12:40:11.943Z,33.60
2018-11-23T12:42:40.256Z,28.97
2018-11-23T12:45:10.351Z,33.20
2018-11-23T12:47:38.498Z,32.97
2018-11-23T12:50:09.186Z,37.70
2018-11-23T12:52:37.326Z,31.60
2018-11-23T12:55:06.042Z,31.30
2018-11-23T12:57:34.308Z,32.53
2018-11-23T13:00:02.720Z,30.60
2018-11-23T13:02:30.867Z,34.58
2018-11-23T13:04:59.021Z,32.10
2018-11-23T13:07:27.189Z,26.60
2018-11-23T13:09:55.351Z,30.43
2018-11-23T13:12:23.733Z,30.72
2018-11-23T13:14:51.881Z,28.80
2018-11-23T13:17:20.035Z,30.55
2018-11-23T13:19:48.176Z,32.08
2018-11-23T13:22:16.335Z,31.33
2018-11-23T13:24:44.492Z,28.95
2018-11-23T13:27:14.810Z,27.25
2018-11-23T13:29:43.502Z,31.20
2018-11-23T13:32:11.674Z,32.08
2018-11-23T13:34:39.855Z,30.25
2018-11-23T13:37:08.051Z,30.62
2018-11-23T13:39:36.231Z,32.23
2018-11-23T13:42:04.400Z,27.25
2018-11-23T13:44:32.648Z,30.00
2018-11-23T13:47:00.845Z,26.30
2018-11-23T13:49:29.048Z,26.90
2018-11-23T13:51:57.236Z,28.60
2018-11-23T13:54:25.404Z,28.40
2018-11-23T13:56:53.605Z,25.63
2018-11-23T13:59:21.879Z,29.40
2018-11-23T14:01:50.040Z,25.83
2018-11-23T14:04:18.192Z,27.40
2018-11-23T14:06:46.372Z,26.97
2018-11-23T14:09:14.557Z,21.80
2018-11-23T14:11:42.756Z,27.43
2018-11-23T14:14:11.927Z,24.75
2018-11-23T14:16:40.202Z,20.57
2018-11-23T14:19:08.377Z,24.60
2018-11-23T14:21:36.548Z,28.02
2018-11-23T14:24:05.387Z,26.27
2018-11-23T14:26:33.540Z,23.92
2018-11-23T14:29:01.692Z,24.80
2018-11-23T14:31:29.853Z,22.52
2018-11-23T14:33:58.021Z,18.67
2018-11-23T14:36:26.208Z,23.45
2018-11-23T14:38:54.373Z,24.98
2018-11-23T14:41:22.544Z,23.32
2018-11-23T14:43:50.737Z,23.83
2018-11-23T14:46:18.893Z,22.70
2018-11-23T14:48:47.039Z,20.82
2018-11-23T14:51:15.163Z,20.95
2018-11-23T14:53:43.315Z,21.33
2018-11-23T14:56:11.493Z,20.40
2018-11-23T14:58:39.642Z,22.87
2018-11-23T15:01:07.773Z,18.35
2018-11-23T15:03:35.934Z,20.97
2018-11-23T15:06:04.096Z,20.52
2018-11-23T15:08:32.255Z,24.20
2018-11-23T15:11:00.475Z,18.60
2018-11-23T15:13:28.652Z,25.08
2018-11-23T15:15:56.818Z,21.00
2018-11-23T15:18:24.972Z,17.42
2018-11-23T15:20:53.108Z,17.50
2018-11-23T15:23:21.330Z,17.42
2018-11-23T15:25:49.505Z,17.75
2018-11-23T15:28:17.647Z,26.65
2018-11-23T15:30:46.219Z,17.67
2018-11-23T15:33:15.886Z,16.75
2018-11-23T15:35:44.440Z,19.00
2018-11-23T15:38:15.518Z,18.17
2018-11-23T15:40:43.672Z,16.15
2018-11-23T15:43:13.012Z,17.00
2018-11-23T15:45:41.178Z,20.12
2018-11-23T15:48:09.917Z,15.28
2018-11-23T15:50:39.324Z,20.10
2018-11-23T15:53:10.080Z,17.20
2018-11-23T15:55:39.054Z,21.33
2018-11-23T15:58:09.763Z,19.50
2018-11-23T16:00:39.131Z,25.32
2018-11-23T16:03:08.549Z,20.60
2018-11-23T16:05:36.786Z,22.42
2018-11-23T16:08:06.517Z,21.82
2018-11-23T16:10:35.724Z,20.30
2018-11-23T16:13:11.143Z,19.30
2018-11-23T16:15:33.495Z,19.80
2018-11-23T16:18:02.193Z,21.00
2018-11-23T16:20:33.734Z,19.85
2018-11-23T16:23:03.243Z,19.90
2018-11-23T16:25:31.542Z,18.25
2018-11-23T16:28:01.140Z,17.32
2018-11-23T16:30:30.561Z,22.95
2018-11-23T16:33:00.042Z,20.30
2018-11-23T16:35:29.953Z,20.43
2018-11-23T16:37:59.580Z,19.67
2018-11-23T16:40:29.274Z,18.52
2018-11-23T16:42:58.166Z,18.65
2018-11-23T16:45:28.700Z,17.00
2018-11-23T16:47:57.676Z,20.82
2018-11-23T16:50:26.281Z,15.90
2018-11-23T16:52:55.256Z,21.35
2018-11-23T16:55:24.041Z,22.25
2018-11-23T16:57:53.855Z,19.62
2018-11-23T17:00:24.292Z,19.05
2018-11-23T17:02:52.960Z,15.93
2018-11-23T17:05:22.684Z,15.08
2018-11-23T17:07:50.832Z,19.37
2018-11-23T17:10:19.540Z,21.07
2018-11-23T17:12:47.691Z,21.65
2018-11-23T17:15:17.327Z,25.43
2018-11-23T17:17:45.692Z,21.93
2018-11-23T17:20:18.168Z,22.07
2018-11-23T17:22:47.664Z,21.55
2018-11-23T17:25:17.180Z,22.25
2018-11-23T17:27:45.539Z,21.73
2018-11-23T17:30:15.260Z,21.62
2018-11-23T17:32:43.394Z,27.50
2018-11-23T17:35:12.012Z,23.67
2018-11-23T17:37:40.654Z,21.35
2018-11-23T17:40:11.323Z,22.00
2018-11-23T17:42:39.498Z,21.65
2018-11-23T17:45:14.153Z,25.17
2018-11-23T17:47:42.400Z,23.45
2018-11-23T17:50:13.453Z,21.95
2018-11-23T17:52:41.830Z,25.72
2018-11-23T17:55:11.036Z,23.42
2018-11-23T17:57:39.713Z,36.80
2018-11-23T18:00:11.228Z,29.52
2018-11-23T18:02:39.379Z,26.48
2018-11-23T18:05:08.857Z,26.27
2018-11-23T18:07:37.028Z,24.82
2018-11-23T18:10:08.253Z,23.73
2018-11-23T18:12:36.590Z,25.12
2018-11-23T18:15:06.548Z,23.10
2018-11-23T18:17:34.722Z,23.70
2018-11-23T18:20:03.276Z,24.90
2018-11-23T18:22:31.445Z,24.00
2018-11-23T18:24:59.604Z,24.27
2018-11-23T18:27:27.796Z,25.90
2018-11-23T18:29:56.124Z,23.10
2018-11-23T18:32:25.332Z,24.40
2018-11-23T18:34:53.475Z,20.72
2018-11-23T18:37:21.635Z,31.82
2018-11-23T18:39:49.804Z,24.52
2018-11-23T18:42:18.004Z,23.92
2018-11-23T18:44:46.156Z,22.98
2018-11-23T18:47:14.411Z,25.88
2018-11-23T18:49:42.583Z,21.52
2018-11-23T18:52:16.852Z,21.17
2018-11-23T18:54:45.012Z,28.00
2018-11-23T18:57:13.184Z,21.73
2018-11-23T18:59:41.335Z,26.68
2018-11-23T19:02:09.508Z,26.70
2018-11-23T19:04:37.870Z,21.45
2018-11-23T19:07:08.644Z,22.35
2018-11-23T19:09:34.376Z,24.02
2018-11-23T19:12:02.540Z,23.70
2018-11-23T19:14:30.694Z,23.10
2018-11-23T19:16:59.073Z,29.45
2018-11-23T19:19:27.459Z,25.12
2018-11-23T19:21:55.782Z,27.37
2018-11-23T19:24:24.167Z,27.00
2018-11-23T19:26:52.647Z,20.27
2018-11-23T19:29:20.888Z,21.87
2018-11-23T19:31:49.270Z,22.42
2018-11-23T19:34:17.488Z,25.30
2018-11-23T19:36:45.822Z,24.52
2018-11-23T19:39:14.105Z,23.65
2018-11-23T19:41:42.294Z,19.42
2018-11-23T19:44:10.614Z,21.37
2018-11-23T19:46:39.959Z,22.30
2018-11-23T19:49:08.220Z,23.92
2018-11-23T19:51:36.400Z,36.68
2018-11-23T19:54:04.928Z,24.92
2018-11-23T19:56:33.365Z,22.60
2018-11-23T19:59:01.675Z,19.23
2018-11-23T20:01:29.984Z,25.32
2018-11-23T20:03:58.176Z,22.85
2018-11-23T20:06:26.323Z,21.85
2018-11-23T20:08:54.467Z,24.55
2018-11-23T20:11:22.627Z,19.30
2018-11-23T20:13:50.776Z,20.43
2018-11-23T20:16:18.927Z,25.10
2018-11-23T20:18:47.117Z,22.82
2018-11-23T20:21:15.281Z,24.18
2018-11-23T20:23:43.411Z,22.93
2018-11-23T20:26:12.613Z,20.92
2018-11-23T20:28:40.785Z,26.62
2018-11-23T20:31:08.954Z,32.03
2018-11-23T20:33:37.097Z,24.85
2018-11-23T20:36:05.366Z,23.67
2018-11-23T20:38:33.500Z,28.23
2018-11-23T20:41:01.664Z,27.93
2018-11-23T20:43:29.816Z,23.50
2018-11-23T20:45:57.959Z,34.05
2018-11-23T20:48:26.128Z,26.77
2018-11-23T20:50:54.256Z,27.93
2018-11-23T20:53:23.456Z,27.32
2018-11-23T20:55:51.587Z,27.20
2018-11-23T20:58:19.746Z,26.33
2018-11-23T21:00:47.896Z,25.37
2018-11-23T21:03:18.573Z,27.40
2018-11-23T21:05:46.736Z,25.70
2018-11-23T21:08:14.887Z,27.02
2018-11-23T21:10:45.086Z,26.57
2018-11-23T21:13:13.296Z,30.27
2018-11-23T21:15:41.465Z,27.58
2018-11-23T21:18:09.641Z,25.45
2018-11-23T21:20:38.901Z,29.70
2018-11-23T21:23:07.040Z,26.50
2018-11-23T21:25:35.195Z,23.18
2018-11-23T21:28:03.363Z,25.27
2018-11-23T21:30:31.523Z,23.00
2018-11-23T21:32:59.663Z,24.95
2018-11-23T21:35:27.816Z,23.92
2018-11-23T21:37:55.956Z,20.05
2018-11-23T21:40:24.113Z,22.48
2018-11-23T21:42:52.259Z,23.98
2018-11-23T21:45:22.402Z,25.30
2018-11-23T21:47:50.544Z,30.10
2018-11-23T21:50:24.880Z,27.22
2018-11-23T21:52:48.477Z,27.20
2018-11-23T21:55:24.162Z,24.02
2018-11-23T21:57:53.327Z,25.90
2018-11-23T22:00:21.491Z,31.85
2018-11-23T22:02:49.651Z,22.42
2018-11-23T22:05:17.820Z,22.95
2018-11-23T22:07:45.998Z,26.75
2018-11-23T22:10:16.045Z,20.08
2018-11-23T22:12:44.260Z,21.85
2018-11-23T22:15:13.824Z,21.93
2018-11-23T22:17:41.961Z,23.15
2018-11-23T22:20:12.112Z,25.77
2018-11-23T22:22:40.336Z,22.48
2018-11-23T22:25:09.681Z,22.30
2018-11-23T22:27:37.836Z,27.37
2018-11-23T22:30:11.984Z,23.50
2018-11-23T22:32:40.148Z,21.57
2018-11-23T22:35:10.384Z,19.40
2018-11-23T22:37:38.549Z,19.45
2018-11-23T22:40:09.589Z,17.35
2018-11-23T22:42:37.756Z,20.25
2018-11-23T22:45:07.569Z,21.93
2018-11-23T22:47:35.725Z,22.80
2018-11-23T22:50:11.257Z,23.22
2018-11-23T22:52:39.464Z,22.58
2018-11-23T22:55:09.069Z,28.83
2018-11-23T22:57:37.314Z,22.25
2018-11-23T23:00:10.429Z,23.52
2018-11-23T23:02:40.684Z,23.22
2018-11-23T23:05:08.851Z,19.90
2018-11-23T23:07:37.032Z,20.80
2018-11-23T23:10:05.462Z,23.83
2018-11-23T23:12:34.998Z,22.45
2018-11-23T23:15:07.278Z,24.05
2018-11-23T23:17:35.424Z,21.62
2018-11-23T23:20:04.505Z,21.05
2018-11-23T23:22:32.659Z,22.70
2018-11-23T23:25:00.874Z,24.25
2018-11-23T23:27:29.010Z,24.50
2018-11-23T23:29:57.157Z,28.67
2018-11-23T23:32:25.420Z,25.62
2018-11-23T23:34:53.576Z,24.45
2018-11-23T23:37:21.717Z,21.62
2018-11-23T23:39:49.855Z,23.77
2018-11-23T23:42:18.005Z,25.75
2018-11-23T23:44:46.147Z,21.80
2018-11-23T23:47:14.330Z,34.20
2018-11-23T23:49:44.617Z,22.67
2018-11-23T23:52:12.772Z,28.45
2018-11-23T23:54:40.904Z,20.08
2018-11-23T23:57:09.071Z,23.95
2018-11-23T23:59:37.211Z,29.40
